createdAt,value
2017-09-19T00:00:57.687Z,5.00
2017-09-19T00:03:25.116Z,5.13
2017-09-19T00:05:53.023Z,6.07
2017-09-19T00:08:20.453Z,4.80
2017-09-19T00:10:48.359Z,5.77
2017-09-19T00:13:15.820Z,6.13
2017-09-19T00:15:43.284Z,5.03
2017-09-19T00:18:10.710Z,6.80
2017-09-19T00:20:38.613Z,6.30
2017-09-19T00:23:06.032Z,7.73
2017-09-19T00:25:34.039Z,5.13
2017-09-19T00:28:01.467Z,5.87
2017-09-19T00:30:29.289Z,6.67
2017-09-19T00:32:56.951Z,6.00
2017-09-19T00:35:24.377Z,5.67
2017-09-19T00:37:52.192Z,8.37
2017-09-19T00:40:19.635Z,5.83
2017-09-19T00:42:47.103Z,5.93
2017-09-19T00:45:14.537Z,6.30
2017-09-19T00:47:42.381Z,5.93
2017-09-19T00:50:09.918Z,5.57
2017-09-19T00:52:37.762Z,6.10
2017-09-19T00:55:05.277Z,7.30
2017-09-19T00:57:32.757Z,6.60
2017-09-19T01:00:00.291Z,6.30
2017-09-19T01:02:28.580Z,6.10
2017-09-19T01:04:56.017Z,6.30
2017-09-19T01:07:23.489Z,5.93
2017-09-19T01:09:51.082Z,7.00
2017-09-19T01:12:19.891Z,12.53
2017-09-19T01:14:47.724Z,9.47
2017-09-19T01:17:15.206Z,9.43
2017-09-19T01:19:42.886Z,6.93
2017-09-19T01:22:10.759Z,7.80
2017-09-19T01:24:38.605Z,7.43
2017-09-19T01:27:06.050Z,7.10
2017-09-19T01:29:33.500Z,7.67
2017-09-19T01:32:00.918Z,7.53
2017-09-19T01:34:28.391Z,9.60
2017-09-19T01:36:55.838Z,7.77
2017-09-19T01:39:23.279Z,6.60
2017-09-19T01:41:50.901Z,6.43
2017-09-19T01:44:18.380Z,8.33
2017-09-19T01:46:45.866Z,8.10
2017-09-19T01:49:13.418Z,6.60
2017-09-19T01:51:40.945Z,5.83
2017-09-19T01:54:09.583Z,6.87
2017-09-19T01:56:37.076Z,6.80
2017-09-19T01:59:04.925Z,5.97
2017-09-19T02:01:32.360Z,6.70
2017-09-19T02:03:59.806Z,7.63
2017-09-19T02:06:27.297Z,7.17
2017-09-19T02:08:54.747Z,7.37
2017-09-19T02:11:22.224Z,6.30
2017-09-19T02:13:49.891Z,6.97
2017-09-19T02:16:17.330Z,7.50
2017-09-19T02:18:44.780Z,8.27
2017-09-19T02:21:13.516Z,7.27
2017-09-19T02:23:41.397Z,7.53
2017-09-19T02:26:09.236Z,7.37
2017-09-19T02:28:36.804Z,7.17
2017-09-19T02:31:04.264Z,7.77
2017-09-19T02:33:31.734Z,7.40
2017-09-19T02:35:59.375Z,6.83
2017-09-19T02:38:26.849Z,9.77
2017-09-19T02:40:54.343Z,8.20
2017-09-19T02:43:21.850Z,9.30
2017-09-19T02:45:49.288Z,9.17
2017-09-19T02:48:16.737Z,10.03
2017-09-19T02:50:44.851Z,8.03
2017-09-19T02:53:12.324Z,7.00
2017-09-19T02:55:39.792Z,6.27
2017-09-19T02:58:07.334Z,7.80
2017-09-19T03:00:34.807Z,6.60
2017-09-19T03:03:02.577Z,7.00
2017-09-19T03:05:30.052Z,7.33
2017-09-19T03:07:57.508Z,6.40
2017-09-19T03:10:24.943Z,7.70
2017-09-19T03:12:52.710Z,6.43
2017-09-19T03:15:20.153Z,15.27
2017-09-19T03:17:48.010Z,8.30
2017-09-19T03:20:15.488Z,8.57
2017-09-19T03:22:43.361Z,7.13
2017-09-19T03:25:11.231Z,6.33
2017-09-19T03:27:38.726Z,5.57
2017-09-19T03:30:06.224Z,5.90
2017-09-19T03:32:33.693Z,5.97
2017-09-19T03:35:02.741Z,5.23
2017-09-19T03:37:30.277Z,5.23
2017-09-19T03:39:58.115Z,8.90
2017-09-19T03:42:25.956Z,5.97
2017-09-19T03:44:53.414Z,7.20
2017-09-19T03:47:20.921Z,8.27
2017-09-19T03:49:48.393Z,8.13
2017-09-19T03:52:16.221Z,6.77
2017-09-19T03:54:43.675Z,6.00
2017-09-19T03:57:11.278Z,6.00
2017-09-19T03:59:38.710Z,7.77
2017-09-19T04:02:06.131Z,7.23
2017-09-19T04:04:33.761Z,7.07
2017-09-19T04:07:01.204Z,8.43
2017-09-19T04:09:28.763Z,7.87
2017-09-19T04:11:56.823Z,6.40
2017-09-19T04:14:24.262Z,5.73
2017-09-19T04:16:51.696Z,5.30
2017-09-19T04:19:19.627Z,5.87
2017-09-19T04:21:47.064Z,5.87
2017-09-19T04:24:14.515Z,5.67
2017-09-19T04:26:43.637Z,5.77
2017-09-19T04:29:11.090Z,6.60
2017-09-19T04:31:38.558Z,7.90
2017-09-19T04:34:06.030Z,6.40
2017-09-19T04:36:33.444Z,7.20
2017-09-19T04:39:01.293Z,8.50
2017-09-19T04:41:28.845Z,5.80
2017-09-19T04:43:56.285Z,5.70
2017-09-19T04:46:23.724Z,5.40
2017-09-19T04:48:51.188Z,5.87
2017-09-19T04:51:18.630Z,8.70
2017-09-19T04:53:46.934Z,6.27
2017-09-19T04:56:14.644Z,6.03
2017-09-19T04:58:42.093Z,8.30
2017-09-19T05:01:09.528Z,6.93
2017-09-19T05:03:37.837Z,5.60
2017-09-19T05:06:05.276Z,6.60
2017-09-19T05:08:32.700Z,5.90
2017-09-19T05:11:00.700Z,5.70
2017-09-19T05:13:28.144Z,7.03
2017-09-19T05:15:56.039Z,5.90
2017-09-19T05:18:25.056Z,6.37
2017-09-19T05:20:52.506Z,5.70
2017-09-19T05:23:19.938Z,6.77
2017-09-19T05:25:47.793Z,6.70
2017-09-19T05:28:15.607Z,7.10
2017-09-19T05:30:43.317Z,6.17
2017-09-19T05:33:10.795Z,6.70
2017-09-19T05:35:38.612Z,7.53
2017-09-19T05:38:06.073Z,7.37
2017-09-19T05:40:33.627Z,7.23
2017-09-19T05:43:01.067Z,6.87
2017-09-19T05:45:28.898Z,6.80
2017-09-19T05:47:56.341Z,8.57
2017-09-19T05:50:23.778Z,6.03
2017-09-19T05:52:51.229Z,6.67
2017-09-19T05:55:18.693Z,8.53
2017-09-19T05:57:46.120Z,7.90
2017-09-19T06:00:13.668Z,7.43
2017-09-19T06:02:41.114Z,6.10
2017-09-19T06:05:08.546Z,9.53
2017-09-19T06:07:35.978Z,7.90
2017-09-19T06:10:03.843Z,6.90
2017-09-19T06:12:31.283Z,6.37
2017-09-19T06:14:58.727Z,6.27
2017-09-19T06:17:26.343Z,6.70
2017-09-19T06:19:54.177Z,6.60
2017-09-19T06:22:22.135Z,6.97
2017-09-19T06:24:50.384Z,7.13
2017-09-19T06:27:17.839Z,8.00
2017-09-19T06:29:45.264Z,6.97
2017-09-19T06:32:12.756Z,7.90
2017-09-19T06:34:40.570Z,8.53
2017-09-19T06:37:07.986Z,7.80
2017-09-19T06:39:36.514Z,6.50
2017-09-19T06:42:03.946Z,6.57
2017-09-19T06:44:31.371Z,8.07
2017-09-19T06:46:59.308Z,8.67
2017-09-19T06:49:26.751Z,10.40
2017-09-19T06:51:54.202Z,5.97
2017-09-19T06:54:21.919Z,7.17
2017-09-19T06:56:49.337Z,6.00
2017-09-19T06:59:16.804Z,5.33
2017-09-19T07:01:44.569Z,4.80
2017-09-19T07:04:12.012Z,5.80
2017-09-19T07:06:39.850Z,6.17
2017-09-19T07:09:07.387Z,6.13
2017-09-19T07:11:34.813Z,7.60
2017-09-19T07:14:02.616Z,7.47
2017-09-19T07:16:30.056Z,6.40
2017-09-19T07:18:57.503Z,8.00
2017-09-19T07:21:25.108Z,8.03
2017-09-19T07:23:52.536Z,10.43
2017-09-19T07:26:20.022Z,7.53
2017-09-19T07:28:47.450Z,6.70
2017-09-19T07:31:15.295Z,6.40
2017-09-19T07:33:42.702Z,5.03
2017-09-19T07:36:10.121Z,5.80
2017-09-19T07:38:37.745Z,6.77
2017-09-19T07:41:05.194Z,8.93
2017-09-19T07:43:32.646Z,6.50
2017-09-19T07:46:00.095Z,6.90
2017-09-19T07:48:27.920Z,5.70
2017-09-19T07:50:55.402Z,6.33
2017-09-19T07:53:22.934Z,6.00
2017-09-19T07:55:50.368Z,6.10
2017-09-19T07:58:17.792Z,7.20
2017-09-19T08:00:45.230Z,6.50
2017-09-19T08:03:12.668Z,5.60
2017-09-19T08:05:40.380Z,7.63
2017-09-19T08:08:07.857Z,6.03
2017-09-19T08:10:35.697Z,5.80
2017-09-19T08:13:03.506Z,5.73
2017-09-19T08:15:31.248Z,5.83
2017-09-19T08:17:58.775Z,4.80
2017-09-19T08:20:26.221Z,5.33
2017-09-19T08:22:53.687Z,3.90
2017-09-19T08:25:21.127Z,4.43
2017-09-19T08:27:48.558Z,5.73
2017-09-19T08:30:16.056Z,4.80
2017-09-19T08:32:43.485Z,7.40
2017-09-19T08:35:10.928Z,4.93
2017-09-19T08:37:38.392Z,4.30
2017-09-19T08:40:05.860Z,4.23
2017-09-19T08:42:33.291Z,4.33
2017-09-19T08:45:01.878Z,4.13
2017-09-19T08:47:29.308Z,3.83
2017-09-19T08:49:56.739Z,3.70
2017-09-19T08:52:24.370Z,5.00
2017-09-19T08:54:51.806Z,3.10
2017-09-19T08:57:19.235Z,4.90
2017-09-19T08:59:47.908Z,4.47
2017-09-19T09:02:15.324Z,3.90
2017-09-19T09:04:42.812Z,3.10
2017-09-19T09:07:10.266Z,3.00
2017-09-19T09:09:37.708Z,3.40
2017-09-19T09:12:05.130Z,3.73
2017-09-19T09:14:33.969Z,3.80
2017-09-19T09:17:01.437Z,3.47
2017-09-19T09:19:28.859Z,3.73
2017-09-19T09:21:56.706Z,4.20
2017-09-19T09:24:24.145Z,5.50
2017-09-19T09:26:51.610Z,4.10
2017-09-19T09:29:19.078Z,5.10
2017-09-19T09:31:47.797Z,4.87
2017-09-19T09:34:15.247Z,3.40
2017-09-19T09:36:42.702Z,4.30
2017-09-19T09:39:10.163Z,3.53
2017-09-19T09:41:37.586Z,4.33
2017-09-19T09:44:05.042Z,3.20
2017-09-19T09:46:32.481Z,5.70
2017-09-19T09:49:00.301Z,4.87
2017-09-19T09:51:27.756Z,3.30
2017-09-19T09:53:55.216Z,4.63
2017-09-19T09:56:22.664Z,2.63
2017-09-19T09:58:50.142Z,3.30
2017-09-19T10:01:17.572Z,2.80
2017-09-19T10:03:45.015Z,1.70
2017-09-19T10:06:12.535Z,1.70
2017-09-19T10:08:39.956Z,3.73
2017-09-19T10:11:07.395Z,2.30
2017-09-19T10:13:35.259Z,1.47
2017-09-19T10:16:02.693Z,1.90
2017-09-19T10:18:30.134Z,2.00
2017-09-19T10:20:57.599Z,1.80
2017-09-19T10:23:25.046Z,2.73
2017-09-19T10:25:52.488Z,3.20
2017-09-19T10:28:19.966Z,1.50
2017-09-19T10:30:47.430Z,2.40
2017-09-19T10:33:14.961Z,2.47
2017-09-19T10:35:43.301Z,1.50
2017-09-19T10:38:10.715Z,1.87
2017-09-19T10:40:38.227Z,2.50
2017-09-19T10:43:05.686Z,2.87
2017-09-19T10:45:33.116Z,4.10
2017-09-19T10:48:00.547Z,2.50
2017-09-19T10:50:28.167Z,3.93
2017-09-19T10:52:55.606Z,2.37
2017-09-19T10:55:23.132Z,3.17
2017-09-19T10:57:50.587Z,2.00
2017-09-19T11:00:18.012Z,2.40
2017-09-19T11:02:45.456Z,3.33
2017-09-19T11:05:12.904Z,6.30
2017-09-19T11:07:40.739Z,4.70
2017-09-19T11:10:08.171Z,7.80
2017-09-19T11:12:35.972Z,6.77
2017-09-19T11:15:03.413Z,5.67
2017-09-19T11:17:30.858Z,9.73
2017-09-19T11:19:58.484Z,3.80
2017-09-19T11:22:26.360Z,5.40
2017-09-19T11:24:54.228Z,3.33
2017-09-19T11:27:22.099Z,3.60
2017-09-19T11:29:49.940Z,1.83
2017-09-19T11:32:17.374Z,3.07
2017-09-19T11:34:44.831Z,2.80
2017-09-19T11:37:12.281Z,3.93
2017-09-19T11:39:39.749Z,2.47
2017-09-19T11:42:07.243Z,2.77
2017-09-19T11:44:34.742Z,1.93
2017-09-19T11:47:02.570Z,4.33
2017-09-19T11:49:30.204Z,2.33
2017-09-19T11:51:57.639Z,3.20
2017-09-19T11:54:25.112Z,4.40
2017-09-19T11:56:52.950Z,3.00
2017-09-19T11:59:20.360Z,2.20
2017-09-19T12:01:47.783Z,2.73
2017-09-19T12:04:15.715Z,2.10
2017-09-19T12:06:43.139Z,2.27
2017-09-19T12:09:10.570Z,3.07
2017-09-19T12:11:38.009Z,3.50
2017-09-19T12:14:05.443Z,5.00
2017-09-19T12:16:32.866Z,2.87
2017-09-19T12:19:00.699Z,3.83
2017-09-19T12:21:28.134Z,6.63
2017-09-19T12:23:55.562Z,5.67
2017-09-19T12:26:23.416Z,4.53
2017-09-19T12:28:50.928Z,5.03
2017-09-19T12:31:18.341Z,3.53
2017-09-19T12:33:45.792Z,5.87
2017-09-19T12:49:09.999Z,3.37
2017-09-19T12:51:37.493Z,2.33
2017-09-19T12:54:04.900Z,1.90
2017-09-19T12:56:32.508Z,2.23
2017-09-19T12:59:00.752Z,2.90
2017-09-19T13:01:28.199Z,1.90
2017-09-19T13:03:56.077Z,4.40
2017-09-19T13:06:23.492Z,1.63
2017-09-19T13:08:50.910Z,1.60
2017-09-19T13:11:18.916Z,2.87
2017-09-19T13:13:46.340Z,1.97
2017-09-19T13:16:14.165Z,1.40
2017-09-19T13:18:41.596Z,2.70
2017-09-19T13:21:09.016Z,1.50
2017-09-19T13:23:36.502Z,1.60
2017-09-19T13:26:04.507Z,2.00
2017-09-19T13:28:31.971Z,1.50
2017-09-19T13:31:11.292Z,3.10
2017-09-19T13:33:57.576Z,2.30
2017-09-19T13:36:25.268Z,1.27
2017-09-19T13:38:52.736Z,1.40
2017-09-19T13:41:20.168Z,1.60
2017-09-19T13:43:48.259Z,1.17
2017-09-19T13:46:15.949Z,2.00
2017-09-19T13:48:43.360Z,4.80
2017-09-19T13:51:11.395Z,2.03
2017-09-19T13:53:38.812Z,2.10
2017-09-19T13:56:06.303Z,1.70
2017-09-19T13:58:33.948Z,2.73
2017-09-19T14:01:01.384Z,2.43
2017-09-19T14:03:29.292Z,2.30
2017-09-19T14:05:57.736Z,3.03
2017-09-19T14:08:25.139Z,1.97
2017-09-19T14:10:52.552Z,2.47
2017-09-19T14:13:20.041Z,2.47
2017-09-19T14:15:47.481Z,1.47
2017-09-19T14:18:14.936Z,13.00
2017-09-19T14:20:42.527Z,1.90
2017-09-19T14:23:09.939Z,4.03
2017-09-19T14:25:37.398Z,57.90
2017-09-19T14:28:05.526Z,7.50
2017-09-19T14:30:32.984Z,2.30
2017-09-19T14:33:00.399Z,2.87
2017-09-19T14:35:28.032Z,3.87
2017-09-19T14:37:55.459Z,3.53
2017-09-19T14:40:23.272Z,4.50
2017-09-19T14:42:50.725Z,3.53
2017-09-19T14:45:18.229Z,8.10
2017-09-19T14:47:45.647Z,4.23
2017-09-19T14:50:13.098Z,4.47
2017-09-19T14:52:40.516Z,6.23
2017-09-19T14:55:07.930Z,6.37
2017-09-19T14:57:35.597Z,4.80
2017-09-19T15:00:03.044Z,3.67
2017-09-19T15:02:30.481Z,3.77
2017-09-19T15:04:57.996Z,3.93
2017-09-19T15:07:25.444Z,6.97
2017-09-19T15:09:52.862Z,4.00
2017-09-19T15:12:20.300Z,4.13
2017-09-19T15:14:47.735Z,5.00
2017-09-19T15:17:15.172Z,3.60
2017-09-19T15:19:42.971Z,4.73
2017-09-19T15:22:10.388Z,5.30
2017-09-19T15:24:38.224Z,5.20
2017-09-19T15:27:06.125Z,4.33
2017-09-19T15:29:33.688Z,4.87
2017-09-19T15:32:01.533Z,3.87
2017-09-19T15:34:28.960Z,3.60
2017-09-19T15:36:56.396Z,4.30
2017-09-19T15:39:23.835Z,3.70
2017-09-19T15:41:51.362Z,4.00
2017-09-19T15:44:18.803Z,3.40
2017-09-19T15:46:46.248Z,4.80
2017-09-19T15:49:14.195Z,4.20
2017-09-19T15:51:41.615Z,4.50
2017-09-19T15:54:09.054Z,5.40
2017-09-19T15:56:36.478Z,4.57
2017-09-19T15:59:03.942Z,3.10
2017-09-19T16:01:31.662Z,3.80
2017-09-19T16:03:59.093Z,3.80
2017-09-19T16:06:26.573Z,3.20
2017-09-19T16:08:54.618Z,4.13
2017-09-19T16:11:22.101Z,6.70
2017-09-19T16:13:49.530Z,3.30
2017-09-19T16:16:17.193Z,4.00
2017-09-19T16:18:44.634Z,5.30
2017-09-19T16:21:12.052Z,3.93
2017-09-19T16:23:39.798Z,5.57
2017-09-19T16:26:07.811Z,4.20
2017-09-19T16:28:35.264Z,5.53
2017-09-19T16:31:02.716Z,6.53
2017-09-19T16:33:30.139Z,6.43
2017-09-19T16:35:57.599Z,5.03
2017-09-19T16:38:25.120Z,8.00
2017-09-19T16:40:52.571Z,8.47
2017-09-19T16:43:20.246Z,7.03
2017-09-19T16:45:47.704Z,4.20
2017-09-19T16:48:15.115Z,4.20
2017-09-19T16:50:42.583Z,6.13
2017-09-19T16:53:09.984Z,5.70
2017-09-19T16:55:38.365Z,5.27
2017-09-19T16:58:06.041Z,5.93
2017-09-19T17:00:33.461Z,6.30
2017-09-19T17:03:00.901Z,5.37
2017-09-19T17:05:28.352Z,9.97
2017-09-19T17:07:55.787Z,6.30
2017-09-19T17:10:23.222Z,10.70
2017-09-19T17:12:51.055Z,6.57
2017-09-19T17:15:18.525Z,8.67
2017-09-19T17:17:45.944Z,10.40
2017-09-19T17:20:13.385Z,9.70
2017-09-19T17:22:41.424Z,10.40
2017-09-19T17:25:08.849Z,8.63
2017-09-19T17:27:36.306Z,10.80
2017-09-19T17:30:03.763Z,8.87
2017-09-19T17:32:31.178Z,7.70
2017-09-19T17:34:58.610Z,9.90
2017-09-19T17:37:26.101Z,11.00
2017-09-19T17:39:53.507Z,9.67
2017-09-19T17:42:21.080Z,9.00
2017-09-19T17:44:48.517Z,9.83
2017-09-19T17:47:16.526Z,9.23
2017-09-19T17:49:43.931Z,10.20
2017-09-19T17:52:11.758Z,8.90
2017-09-19T17:54:39.411Z,9.57
2017-09-19T17:57:06.840Z,9.17
2017-09-19T17:59:34.650Z,9.50
2017-09-19T18:02:02.303Z,12.33
2017-09-19T18:04:29.735Z,9.07
2017-09-19T18:06:57.223Z,12.07
2017-09-19T18:09:24.852Z,10.33
2017-09-19T18:11:52.774Z,16.30
2017-09-19T18:14:20.189Z,13.80
2017-09-19T18:16:47.668Z,9.80
2017-09-19T18:19:15.490Z,10.20
2017-09-19T18:21:43.680Z,10.63
2017-09-19T18:24:11.713Z,12.63
2017-09-19T18:26:40.217Z,9.70
2017-09-19T18:29:08.733Z,11.20
2017-09-19T18:31:37.885Z,10.93
2017-09-19T18:34:06.883Z,12.30
2017-09-19T18:36:34.467Z,10.30
2017-09-19T18:39:02.215Z,12.07
2017-09-19T18:41:29.644Z,12.80
2017-09-19T18:43:57.464Z,13.87
2017-09-19T18:46:25.114Z,15.07
2017-09-19T18:48:52.553Z,17.00
2017-09-19T18:51:20.455Z,15.83
2017-09-19T18:53:47.944Z,20.33
2017-09-19T18:56:15.340Z,15.87
2017-09-19T18:58:43.174Z,16.70
2017-09-19T19:01:12.140Z,16.50
2017-09-19T19:03:39.593Z,15.03
2017-09-19T19:06:07.395Z,15.27
2017-09-19T19:08:35.032Z,16.20
2017-09-19T19:11:02.472Z,15.83
2017-09-19T19:13:29.900Z,22.53
2017-09-19T19:15:57.524Z,18.23
2017-09-19T19:18:24.956Z,18.07
2017-09-19T19:20:52.777Z,20.90
2017-09-19T19:23:20.230Z,14.60
2017-09-19T19:25:47.667Z,16.67
2017-09-19T19:28:15.121Z,22.30
2017-09-19T19:30:42.954Z,24.27
2017-09-19T19:33:10.389Z,21.00
2017-09-19T19:35:38.751Z,21.63
2017-09-19T19:38:06.212Z,17.83
2017-09-19T19:40:33.643Z,18.97
2017-09-19T19:43:01.468Z,18.33
2017-09-19T19:45:28.907Z,17.23
2017-09-19T19:47:56.341Z,16.17
2017-09-19T19:50:24.172Z,16.00
2017-09-19T19:52:51.620Z,17.40
2017-09-19T19:55:19.039Z,18.30
2017-09-19T19:57:46.468Z,18.17
2017-09-19T20:00:13.979Z,16.27
2017-09-19T20:02:41.401Z,16.30
2017-09-19T20:05:08.828Z,17.30
2017-09-19T20:07:36.279Z,19.00
2017-09-19T20:10:03.720Z,19.27
2017-09-19T20:12:31.157Z,21.27
2017-09-19T20:14:59.375Z,24.97
2017-09-19T20:17:26.819Z,19.80
2017-09-19T20:19:54.243Z,17.90
2017-09-19T20:22:21.679Z,19.23
2017-09-19T20:24:49.114Z,21.83
2017-09-19T20:27:17.357Z,21.60
2017-09-19T20:29:45.272Z,21.80
2017-09-19T20:32:12.702Z,20.00
2017-09-19T20:34:40.609Z,20.00
2017-09-19T20:37:08.382Z,21.13
2017-09-19T20:39:35.810Z,17.90
2017-09-19T20:42:03.704Z,22.20
2017-09-19T20:44:31.963Z,23.80
2017-09-19T20:46:59.389Z,20.73
2017-09-19T20:49:26.823Z,19.97
2017-09-19T20:51:54.290Z,24.33
2017-09-19T20:54:22.346Z,23.60
2017-09-19T20:56:49.772Z,22.07
2017-09-19T20:59:17.224Z,20.20
2017-09-19T21:01:44.741Z,21.47
2017-09-19T21:04:17.906Z,22.57
2017-09-19T21:06:51.392Z,25.13
2017-09-19T21:09:25.128Z,25.30
2017-09-19T21:11:58.304Z,29.83
2017-09-19T21:14:31.395Z,25.50
2017-09-19T21:17:05.047Z,31.57
2017-09-19T21:19:32.002Z,26.67
2017-09-19T21:21:59.626Z,27.67
2017-09-19T21:24:27.054Z,27.93
2017-09-19T21:26:54.970Z,25.47
2017-09-19T21:29:22.392Z,28.13
2017-09-19T21:31:50.199Z,28.47
2017-09-19T21:34:17.637Z,29.00
2017-09-19T21:36:45.067Z,27.73
2017-09-19T21:39:12.481Z,27.83
2017-09-19T21:41:39.935Z,28.10
2017-09-19T21:44:07.694Z,29.70
2017-09-19T21:46:35.114Z,27.77
2017-09-19T21:49:02.556Z,28.20
2017-09-19T21:51:29.997Z,27.90
2017-09-19T21:53:57.447Z,31.67
2017-09-19T21:56:24.875Z,30.67
2017-09-19T21:58:52.338Z,30.67
2017-09-19T22:01:19.750Z,32.00
2017-09-19T22:03:47.193Z,31.63
2017-09-19T22:06:15.360Z,31.00
2017-09-19T22:08:42.836Z,28.67
2017-09-19T22:11:10.483Z,31.73
2017-09-19T22:13:37.951Z,28.00
2017-09-19T22:16:05.429Z,31.37
2017-09-19T22:18:33.032Z,26.30
2017-09-19T22:21:00.472Z,34.47
2017-09-19T22:23:27.928Z,31.70
2017-09-19T22:25:55.391Z,33.63
2017-09-19T22:28:22.828Z,34.67
2017-09-19T22:30:50.271Z,41.77
2017-09-19T22:33:18.113Z,39.60
2017-09-19T22:35:45.636Z,38.77
2017-09-19T22:38:13.147Z,38.17
2017-09-19T22:40:40.579Z,42.13
2017-09-19T22:43:08.035Z,41.87
2017-09-19T22:45:35.464Z,33.27
2017-09-19T22:48:02.883Z,39.00
2017-09-19T22:50:30.414Z,39.23
2017-09-19T22:52:58.087Z,38.70
2017-09-19T22:55:26.099Z,40.20
2017-09-19T22:57:53.523Z,35.83
2017-09-19T23:00:21.083Z,40.03
2017-09-19T23:02:48.520Z,43.17
2017-09-19T23:05:15.996Z,43.40
2017-09-19T23:07:43.482Z,41.83
2017-09-19T23:10:10.917Z,43.90
2017-09-19T23:12:38.358Z,39.50
2017-09-19T23:15:06.196Z,39.67
2017-09-19T23:17:33.624Z,39.03
2017-09-19T23:20:01.070Z,42.30
2017-09-19T23:22:28.505Z,34.37
2017-09-19T23:24:56.407Z,38.53
2017-09-19T23:27:23.879Z,39.37
2017-09-19T23:29:51.353Z,38.60
2017-09-19T23:32:18.760Z,41.97
2017-09-19T23:34:46.767Z,39.47
2017-09-19T23:37:14.203Z,42.03
2017-09-19T23:39:42.027Z,39.57
2017-09-19T23:42:09.783Z,42.83
2017-09-19T23:44:37.228Z,45.43
2017-09-19T23:47:04.648Z,37.77
2017-09-19T23:49:32.585Z,44.70
2017-09-19T23:52:00.048Z,38.80
2017-09-19T23:54:27.474Z,39.57
2017-09-19T23:56:54.942Z,41.00
2017-09-19T23:59:22.377Z,38.57
